Main page
METAR-TAF:

METAR-TAF

Airports :

Austin Executive Airport

Austin, Texas, United States

latitude: 30-24-00N, longitude: 097-34-25W, elevation: 620 ft

Current weather observation

The report was made 23 minutes ago, at 14:35 UTC
Wind 13 mph from the South/Southeast
Temperature 82°F
Humidity 89%
Pressure 29.83 in. Hg
Visibility: 7 miles
Few clouds at a height of 1600 ft
Broken clouds at a height of 2100 ft
Broken clouds at a height of 2700 ft

METAR: KEDC 171435Z AUTO 16011KT 7SM FEW016 BKN021 BKN027 28/26 A2983 RMK AO2

Time: 08:58 (14:58 UTC)


TAF: missing

Weather observations and forecasts of more than 4000 airports (METAR and TAF reports).

The available stations are represented by yellow and red dots on the map.

Hover mouse over dot to see the name of the station.

Then click to see weather observations and forecasts.

To change the map : click on the green buttons with a black cross to zoom in, on the green button with a dash to zoom out, or on the green arrows for adjacent maps.


METAR-TAF: